Terminal Aerodrome Forecast
Issued by NWS

Home | Current Version | Previous Version | Text Only | Print | Product List | Glossary On
Versions: 1 2 3 4 5 6 7 8 9 10 11 12
593
FTUS46 KEKA 042320
TAFUKI
TAF
KUKI 042320Z 0500/0524 31003KT P6SM BKN150
     FM050300 00000KT P6SM BKN050
     FM050700 32005KT P6SM BKN020
     FM051000 00000KT P6SM FEW030=

USA.gov is the U.S. government's official web portal to all federal, state and local government web resources and services.